Time;durP1;ratioP1;P1;durP2;ratioP2;P2;SDS_P1;SDS_P2;PMS_P1;PMS_P2;Temp;Humidity;BMP_temperature;BMP_pressure;BME280_temperature;BME280_humidity;BME280_pressure;Samples;Min_cycle;Max_cycle;Signal;HPM_P1;HPM_P2
2022/12/10 00:01:33;;;;;;;26.60;12.07;;;;;;;8.96;100.00;94000.44;5085161;28;20621;-78
2022/12/10 00:04:02;;;;;;;34.77;12.80;;;;;;;8.98;100.00;94001.00;5086344;28;20200;-78
2022/12/10 00:06:31;;;;;;;30.27;12.67;;;;;;;8.92;100.00;93998.50;5088682;28;20220;-78
2022/12/10 00:08:59;;;;;;;30.27;11.93;;;;;;;8.93;100.00;94006.06;5087917;28;20189;-78
2022/12/10 00:11:26;;;;;;;30.90;12.40;;;;;;;8.95;100.00;94004.03;5086440;28;20201;-77
2022/12/10 00:13:54;;;;;;;29.40;13.83;;;;;;;8.90;100.00;94003.94;5087472;28;20197;-78
2022/12/10 00:16:22;;;;;;;38.03;13.83;;;;;;;8.98;100.00;94006.19;5087246;28;20197;-78
2022/12/10 00:18:50;;;;;;;31.23;13.70;;;;;;;9.03;100.00;94014.06;5086887;28;20193;-78
2022/12/10 00:21:19;;;;;;;27.40;13.03;;;;;;;9.06;100.00;94008.44;5087123;28;20780;-78
2022/12/10 00:23:47;;;;;;;30.87;13.47;;;;;;;9.07;100.00;93997.06;5086812;28;21038;-78
2022/12/10 00:26:16;;;;;;;26.97;12.43;;;;;;;9.12;100.00;93997.19;5087768;28;20279;-78
2022/12/10 00:28:44;;;;;;;27.33;12.77;;;;;;;9.01;100.00;93995.38;5086879;28;20201;-79
2022/12/10 00:31:13;;;;;;;27.43;12.30;;;;;;;8.97;100.00;93999.44;5088214;28;20200;-76
2022/12/10 00:33:40;;;;;;;30.27;12.90;;;;;;;8.90;100.00;93995.34;5086716;28;20250;-78
2022/12/10 00:36:10;;;;;;;28.77;11.67;;;;;;;8.93;100.00;93994.91;5086943;28;20224;-77
2022/12/10 00:38:40;;;;;;;32.87;12.53;;;;;;;8.97;100.00;93996.84;5085976;28;20197;-77
2022/12/10 00:41:07;;;;;;;31.20;12.33;;;;;;;9.10;100.00;94017.34;5088800;28;20193;-77
2022/12/10 00:43:34;;;;;;;25.63;12.10;;;;;;;9.01;100.00;94010.13;5087147;28;20220;-78
2022/12/10 00:46:02;;;;;;;26.50;11.50;;;;;;;8.91;100.00;94002.13;5086555;28;20201;-78
2022/12/10 00:48:29;;;;;;;26.27;11.77;;;;;;;8.76;100.00;93987.00;5086972;28;20713;-77
2022/12/10 00:50:57;;;;;;;23.10;10.07;;;;;;;8.81;100.00;93994.91;5087317;28;20223;-77
2022/12/10 00:53:25;;;;;;;21.83;8.67;;;;;;;8.81;100.00;93997.47;5088563;28;20277;-78
2022/12/10 00:55:54;;;;;;;20.60;8.00;;;;;;;8.88;100.00;94011.13;5084659;28;20283;-77
2022/12/10 00:58:21;;;;;;;22.80;8.80;;;;;;;8.97;100.00;94009.00;5084928;28;20196;-78
2022/12/10 01:00:48;;;;;;;23.83;10.27;;;;;;;9.03;100.00;93998.50;5086931;28;20196;-78
2022/12/10 01:03:16;;;;;;;22.77;9.07;;;;;;;9.04;100.00;93976.78;5088654;28;20572;-75
2022/12/10 01:05:43;;;;;;;26.57;9.20;;;;;;;9.06;100.00;94005.09;5086107;28;20207;-75
2022/12/10 01:08:10;;;;;;;21.87;9.30;;;;;;;9.11;100.00;94008.56;5086415;28;20223;-75
2022/12/10 01:10:38;;;;;;;25.63;8.87;;;;;;;9.09;100.00;94004.63;5085642;28;20200;-75
2022/12/10 01:13:06;;;;;;;23.80;9.90;;;;;;;9.06;100.00;94003.25;5086152;28;20205;-76
2022/12/10 01:15:38;;;;;;;23.63;8.97;;;;;;;9.13;100.00;93995.38;5087408;28;20192;-76
2022/12/10 01:18:05;;;;;;;17.73;8.83;;;;;;;9.08;100.00;93998.66;5086643;28;20208;-76
2022/12/10 01:20:35;;;;;;;22.00;9.17;;;;;;;9.18;100.00;93992.13;5084706;28;20651;-76
2022/12/10 01:23:02;;;;;;;19.50;9.03;;;;;;;9.18;100.00;93987.72;5085730;28;20189;-76
2022/12/10 01:25:29;;;;;;;27.00;10.00;;;;;;;9.25;100.00;93993.59;5086667;28;20189;-76
2022/12/10 01:27:56;;;;;;;21.27;9.00;;;;;;;9.26;100.00;93974.44;5085884;28;20662;-78
2022/12/10 01:30:25;;;;;;;22.57;8.87;;;;;;;9.23;100.00;93981.88;5086739;28;20196;-78
2022/12/10 01:32:52;;;;;;;33.53;8.87;;;;;;;9.19;100.00;93968.56;5083769;28;20197;-78
2022/12/10 01:35:18;;;;;;;22.23;9.27;;;;;;;9.23;100.00;93967.09;5086672;28;20212;-78
2022/12/10 01:37:45;;;;;;;20.37;8.97;;;;;;;9.28;100.00;93974.97;5089049;28;20235;-78
2022/12/10 01:40:12;;;;;;;23.57;9.37;;;;;;;9.30;100.00;93982.53;5086371;28;20216;-78
2022/12/10 01:42:39;;;;;;;22.23;8.60;;;;;;;9.24;100.00;93971.25;5086376;28;20238;-77
2022/12/10 01:45:13;;;;;;;14.30;7.80;;;;;;;9.34;100.00;93986.25;5086152;28;20232;-76
2022/12/10 01:47:41;;;;;;;21.10;8.93;;;;;;;9.27;100.00;93978.59;5087649;28;20209;-77
2022/12/10 01:50:09;;;;;;;25.40;9.10;;;;;;;9.23;100.00;93992.22;5086608;28;20659;-76
2022/12/10 01:52:37;;;;;;;23.93;9.63;;;;;;;9.33;100.00;93974.28;5086232;28;20279;-76
2022/12/10 01:55:29;;;;;;;29.73;9.20;;;;;;;9.33;100.00;93972.50;5085726;28;20651;-76
2022/12/10 01:57:56;;;;;;;16.87;8.77;;;;;;;9.38;100.00;93982.97;5083755;28;20595;-76
2022/12/10 02:00:23;;;;;;;24.53;8.47;;;;;;;9.36;100.00;93964.25;5087534;28;20216;-76
2022/12/10 02:03:00;;;;;;;15.67;7.67;;;;;;;9.34;100.00;93965.50;5087325;28;20238;-76
2022/12/10 02:05:33;;;;;;;17.23;7.63;;;;;;;9.42;100.00;93963.34;5085226;28;20204;-76
2022/12/10 02:08:10;;;;;;;19.87;7.57;;;;;;;9.44;100.00;93950.94;5085723;28;20224;-77
2022/12/10 02:10:49;;;;;;;20.03;7.97;;;;;;;9.44;100.00;93965.72;5084809;28;20579;-76
2022/12/10 02:13:22;;;;;;;16.43;7.70;;;;;;;9.47;100.00;93973.03;5086955;28;20240;-76
2022/12/10 02:15:53;;;;;;;21.40;8.43;;;;;;;9.49;100.00;93982.19;5088385;28;20556;-78
2022/12/10 02:18:25;;;;;;;20.07;9.30;;;;;;;9.50;100.00;93991.53;5084591;28;20246;-77
2022/12/10 02:20:57;;;;;;;23.03;8.30;;;;;;;9.53;100.00;93954.75;5083092;28;20948;-75
2022/12/10 02:23:27;;;;;;;21.50;8.90;;;;;;;9.52;100.00;93950.59;5084729;28;20632;-77
2022/12/10 02:26:00;;;;;;;20.77;9.53;;;;;;;9.53;100.00;93957.34;5084385;28;20189;-77
2022/12/10 02:28:40;;;;;;;25.07;9.43;;;;;;;9.55;100.00;93962.34;5087330;28;20631;-77
2022/12/10 02:31:11;;;;;;;24.30;10.23;;;;;;;9.55;100.00;93949.38;5085695;28;20211;-77
2022/12/10 02:33:43;;;;;;;20.50;10.97;;;;;;;9.52;100.00;93942.81;5085803;28;20197;-78
2022/12/10 02:36:14;;;;;;;25.80;11.47;;;;;;;9.61;100.00;93943.25;5085334;28;20201;-78
2022/12/10 02:38:42;;;;;;;19.90;10.63;;;;;;;9.69;100.00;93945.50;5086158;28;20247;-76
2022/12/10 02:41:15;;;;;;;25.10;12.47;;;;;;;9.67;100.00;93948.31;5087472;28;20209;-76
2022/12/10 02:43:43;;;;;;;21.60;12.20;;;;;;;9.74;100.00;93937.00;5084295;28;20232;-76
2022/12/10 02:46:11;;;;;;;25.00;11.47;;;;;;;9.62;100.00;93937.84;5083865;28;20667;-77
2022/12/10 02:48:40;;;;;;;24.00;11.93;;;;;;;9.58;100.00;93948.91;5085123;28;20220;-77
2022/12/10 02:51:07;;;;;;;26.33;11.00;;;;;;;9.60;100.00;93941.69;5087356;28;20209;-78
2022/12/10 02:53:34;;;;;;;20.97;10.47;;;;;;;9.59;100.00;93937.50;5089848;28;20221;-78
2022/12/10 02:56:14;;;;;;;23.50;10.17;;;;;;;9.58;100.00;93941.91;5089176;28;20208;-77
2022/12/10 02:58:49;;;;;;;20.37;10.60;;;;;;;9.63;100.00;93941.22;5088446;28;20239;-78
2022/12/10 03:01:29;;;;;;;23.47;10.13;;;;;;;9.54;100.00;93943.38;5089246;28;20184;-79
2022/12/10 03:04:00;;;;;;;22.00;10.07;;;;;;;9.64;100.00;93937.59;5086917;28;20208;-78
2022/12/10 03:06:33;;;;;;;18.47;9.47;;;;;;;9.50;100.00;93949.25;5090761;28;20192;-77
2022/12/10 03:09:06;;;;;;;24.47;10.30;;;;;;;9.59;100.00;93937.50;5087592;28;20197;-77
2022/12/10 03:11:33;;;;;;;19.80;10.87;;;;;;;9.55;100.00;93931.22;5088576;28;20200;-77
2022/12/10 03:14:03;;;;;;;25.17;10.37;;;;;;;9.59;100.00;93938.28;5088646;28;20193;-76
2022/12/10 03:16:36;;;;;;;20.03;10.20;;;;;;;9.64;100.00;93935.78;5089287;28;20193;-77
2022/12/10 03:19:07;;;;;;;20.20;9.30;;;;;;;9.61;100.00;93930.25;5090627;28;20196;-77
2022/12/10 03:21:36;;;;;;;23.67;11.00;;;;;;;9.54;100.00;93908.88;5088045;28;20193;-77
2022/12/10 03:24:03;;;;;;;25.10;10.03;;;;;;;9.66;100.00;93925.19;5088567;28;20283;-77
2022/12/10 03:26:31;;;;;;;23.13;10.00;;;;;;;9.68;100.00;93941.31;5088482;28;20207;-77
2022/12/10 03:29:03;;;;;;;22.87;10.53;;;;;;;9.63;100.00;93923.06;5087657;28;20220;-77
2022/12/10 03:31:34;;;;;;;19.00;10.13;;;;;;;9.67;100.00;93924.97;5088899;28;20196;-78
2022/12/10 03:34:02;;;;;;;21.13;10.53;;;;;;;9.52;100.00;93919.47;5085954;28;20200;-77
2022/12/10 03:36:31;;;;;;;23.33;11.23;;;;;;;9.48;100.00;93915.78;5087712;28;20208;-77
2022/12/10 03:38:59;;;;;;;20.47;9.83;;;;;;;9.52;100.00;93929.06;5088353;28;20291;-78
2022/12/10 03:41:26;;;;;;;20.50;10.83;;;;;;;9.61;100.00;93919.88;5089816;28;20193;-76
2022/12/10 03:43:55;;;;;;;26.40;11.63;;;;;;;9.61;100.00;93915.50;5088299;28;20673;-77
2022/12/10 03:46:22;;;;;;;25.13;10.23;;;;;;;9.58;100.00;93920.38;5086364;28;20205;-76
2022/12/10 03:48:50;;;;;;;17.80;9.87;;;;;;;9.58;100.00;93928.16;5087548;28;20692;-77
2022/12/10 03:51:17;;;;;;;16.17;8.90;;;;;;;9.48;100.00;93883.84;5089735;28;20189;-77
2022/12/10 03:53:44;;;;;;;14.87;7.90;;;;;;;9.57;100.00;93893.66;5089235;28;20687;-79
2022/12/10 03:56:11;;;;;;;15.23;8.00;;;;;;;9.73;100.00;93886.13;5087479;28;21194;-79
2022/12/10 03:58:39;;;;;;;19.77;8.43;;;;;;;9.82;100.00;93897.72;5087919;28;20192;-78
2022/12/10 04:01:06;;;;;;;19.80;8.47;;;;;;;9.98;100.00;93909.97;5086392;28;20201;-78
2022/12/10 04:03:35;;;;;;;19.03;8.30;;;;;;;9.98;100.00;93918.56;5088881;28;20200;-78
2022/12/10 04:06:05;;;;;;;18.20;8.60;;;;;;;9.98;100.00;93920.34;5086603;28;20201;-78
2022/12/10 04:08:32;;;;;;;16.03;8.20;;;;;;;9.99;100.00;93911.53;5087201;28;20213;-78
2022/12/10 04:11:04;;;;;;;16.83;8.43;;;;;;;10.02;100.00;93916.25;5085448;28;20193;-78
2022/12/10 04:16:29;;;;;;;15.97;8.27;;;;;;;10.10;100.00;93918.50;5089984;28;20204;-78
2022/12/10 04:18:57;;;;;;;20.57;9.30;;;;;;;10.10;100.00;93919.28;5088011;28;20199;-78
2022/12/10 04:26:58;;;;;;;15.10;8.40;;;;;;;9.99;100.00;93904.53;5087254;28;20200;-77
2022/12/10 04:29:27;;;;;;;18.07;8.17;;;;;;;9.88;100.00;93902.78;5087733;28;20197;-77
2022/12/10 04:31:54;;;;;;;19.70;9.00;;;;;;;9.98;100.00;93930.75;5088769;28;20254;-77
2022/12/10 04:34:22;;;;;;;15.60;8.07;;;;;;;10.03;100.00;93923.03;5085104;28;20200;-77
2022/12/10 04:36:50;;;;;;;15.73;8.00;;;;;;;10.04;100.00;93920.19;5086211;28;20199;-77
2022/12/10 04:39:17;;;;;;;16.90;7.23;;;;;;;10.14;100.00;93927.41;5087067;28;20209;-77
2022/12/10 04:41:46;;;;;;;13.67;7.60;;;;;;;10.16;100.00;93928.75;5089795;28;20203;-78
2022/12/10 04:44:13;;;;;;;14.50;7.67;;;;;;;10.15;100.00;93926.41;5087246;28;20248;-78
2022/12/10 04:46:40;;;;;;;20.77;8.37;;;;;;;10.24;100.00;93930.97;5087721;28;20616;-78
2022/12/10 04:49:07;;;;;;;16.87;8.37;;;;;;;10.22;100.00;93934.81;5087662;28;20220;-78
2022/12/10 04:51:35;;;;;;;15.53;7.10;;;;;;;10.33;100.00;93944.38;5085510;28;20189;-78
2022/12/10 04:54:03;;;;;;;15.40;7.90;;;;;;;10.27;100.00;93939.34;5088385;28;20587;-78
2022/12/10 04:56:31;;;;;;;15.53;7.97;;;;;;;10.25;100.00;93937.75;5087719;28;20189;-78
2022/12/10 04:58:58;;;;;;;16.10;7.80;;;;;;;10.25;100.00;93919.56;5087253;28;20663;-79
2022/12/10 05:01:25;;;;;;;17.97;7.53;;;;;;;10.24;100.00;93923.19;5086543;28;20201;-77
2022/12/10 05:03:52;;;;;;;17.27;8.20;;;;;;;10.27;100.00;93935.69;5088689;28;20198;-77
2022/12/10 05:06:20;;;;;;;17.00;7.57;;;;;;;10.27;100.00;93940.88;5086982;28;20663;-76
2022/12/10 05:08:47;;;;;;;16.93;7.90;;;;;;;10.27;100.00;93923.75;5086627;28;20687;-78
2022/12/10 05:11:18;;;;;;;16.97;7.87;;;;;;;10.30;100.00;93934.47;5086927;28;20200;-78
2022/12/10 05:13:45;;;;;;;20.40;8.07;;;;;;;10.26;100.00;93915.16;5086762;28;20192;-77
2022/12/10 05:16:14;;;;;;;13.87;7.53;;;;;;;10.25;100.00;93916.97;5087195;28;20189;-78
2022/12/10 05:18:41;;;;;;;19.63;8.37;;;;;;;10.27;100.00;93923.75;5085251;28;20212;-78
2022/12/10 05:21:12;;;;;;;20.83;8.27;;;;;;;10.24;100.00;93907.59;5085490;28;20197;-77
2022/12/10 05:23:39;;;;;;;22.70;8.43;;;;;;;10.20;100.00;93901.31;5085876;28;20228;-78
2022/12/10 05:26:08;;;;;;;24.40;8.53;;;;;;;10.17;100.00;93891.41;5088866;28;20553;-79
2022/12/10 05:28:39;;;;;;;17.97;8.80;;;;;;;10.14;100.00;93897.06;5086467;28;20216;-77
2022/12/10 05:31:06;;;;;;;17.83;8.77;;;;;;;10.11;100.00;93922.66;5086155;28;20209;-77
2022/12/10 05:33:33;;;;;;;25.57;9.57;;;;;;;10.14;100.00;93922.22;5085742;28;20211;-77
2022/12/10 05:36:01;;;;;;;16.67;9.07;;;;;;;10.18;100.00;93928.53;5086525;28;20205;-76
2022/12/10 05:38:30;;;;;;;21.13;8.87;;;;;;;10.22;100.00;93927.81;5087325;28;20189;-76
2022/12/10 05:41:01;;;;;;;19.17;9.13;;;;;;;10.22;100.00;93927.81;5085494;28;20189;-78
2022/12/10 05:43:28;;;;;;;18.60;8.47;;;;;;;10.23;100.00;93932.00;5085522;28;20228;-77
2022/12/10 05:46:01;;;;;;;17.70;9.67;;;;;;;10.22;100.00;93927.81;5085971;28;20200;-78
2022/12/10 05:48:28;;;;;;;22.40;10.43;;;;;;;10.31;100.00;93924.84;5086652;28;20207;-77
2022/12/10 05:50:55;;;;;;;26.70;10.13;;;;;;;10.25;100.00;93931.75;5086834;28;20610;-77
2022/12/10 05:53:22;;;;;;;23.20;11.60;;;;;;;10.23;100.00;93942.41;5086171;28;20192;-76
2022/12/10 05:55:48;;;;;;;22.93;12.17;;;;;;;10.17;100.00;93921.75;5085830;28;20197;-77
2022/12/10 05:58:15;;;;;;;25.50;13.07;;;;;;;10.06;100.00;93918.19;5085394;28;20946;-74
2022/12/10 06:00:43;;;;;;;23.47;11.63;;;;;;;10.20;100.00;93919.50;5087589;28;20205;-76
2022/12/10 06:03:11;;;;;;;20.90;11.70;;;;;;;10.25;100.00;93936.97;5085523;28;20208;-77
2022/12/10 06:05:39;;;;;;;25.93;11.40;;;;;;;10.34;100.00;93950.34;5084379;28;20193;-78
2022/12/10 06:08:06;;;;;;;20.57;10.57;;;;;;;10.27;100.00;93934.13;5085851;28;20247;-78
2022/12/10 06:10:35;;;;;;;22.70;10.73;;;;;;;10.20;100.00;93955.84;5087048;28;20205;-78
2022/12/10 06:13:02;;;;;;;28.57;11.77;;;;;;;10.21;100.00;93948.84;5086334;28;20669;-78
2022/12/10 06:15:29;;;;;;;23.57;11.13;;;;;;;10.25;100.00;93935.16;5085573;28;20185;-77
2022/12/10 06:17:56;;;;;;;24.80;11.37;;;;;;;10.30;100.00;93951.84;5085702;28;20200;-77
2022/12/10 06:20:25;;;;;;;24.40;12.73;;;;;;;10.34;100.00;93945.94;5086086;28;20705;-76
2022/12/10 06:22:52;;;;;;;26.10;14.27;;;;;;;10.34;100.00;93935.56;5086952;28;20659;-77
2022/12/10 06:25:19;;;;;;;21.47;11.40;;;;;;;10.43;100.00;93941.16;5084287;28;20670;-75
2022/12/10 06:27:46;;;;;;;34.13;21.30;;;;;;;10.45;100.00;93931.31;5089302;28;20203;-75
2022/12/10 06:30:13;;;;;;;22.43;11.57;;;;;;;10.42;100.00;93924.78;5088904;28;20211;-76
2022/12/10 06:32:42;;;;;;;21.73;10.47;;;;;;;10.37;100.00;93908.31;5090208;28;20589;-76
2022/12/10 06:35:10;;;;;;;22.67;11.10;;;;;;;10.29;100.00;93906.91;5089806;28;20254;-76
2022/12/10 06:37:38;;;;;;;19.70;10.93;;;;;;;10.36;100.00;93907.53;5088892;28;20197;-76
2022/12/10 06:40:07;;;;;;;21.73;10.47;;;;;;;10.29;100.00;93901.72;5088849;28;20197;-76
2022/12/10 06:42:33;;;;;;;21.53;11.23;;;;;;;10.31;100.00;93923.03;5089245;28;20679;-76
2022/12/10 06:45:00;;;;;;;20.03;12.03;;;;;;;10.32;100.00;93932.41;5089034;28;20239;-74
2022/12/10 06:47:27;;;;;;;22.10;10.50;;;;;;;10.36;100.00;93930.16;5088561;28;20197;-75
2022/12/10 06:49:54;;;;;;;18.83;10.60;;;;;;;10.33;100.00;93928.00;5089298;28;20220;-75
2022/12/10 06:52:21;;;;;;;20.53;10.03;;;;;;;10.45;100.00;93941.69;5087047;28;20211;-76
2022/12/10 06:54:49;;;;;;;21.63;10.57;;;;;;;10.42;100.00;93963.75;5091396;28;20204;-76
2022/12/10 06:57:16;;;;;;;22.67;11.57;;;;;;;10.43;100.00;93960.13;5089235;28;20200;-76
2022/12/10 06:59:42;;;;;;;28.40;12.83;;;;;;;10.43;100.00;93935.97;5088704;28;20192;-79
2022/12/10 07:02:10;;;;;;;24.50;12.97;;;;;;;10.46;100.00;93940.69;5088633;28;20204;-76
2022/12/10 07:04:37;;;;;;;26.03;12.27;;;;;;;10.49;100.00;93948.03;5089066;28;20197;-77
2022/12/10 07:07:03;;;;;;;24.50;12.27;;;;;;;10.56;100.00;93948.66;5090355;28;20207;-76
2022/12/10 07:09:31;;;;;;;22.67;11.43;;;;;;;10.51;100.00;93948.56;5088183;28;20310;-76
2022/12/10 07:12:00;;;;;;;22.77;11.33;;;;;;;10.50;100.00;93953.00;5085619;28;20311;-79
2022/12/10 07:14:27;;;;;;;26.50;12.57;;;;;;;10.53;100.00;93960.31;5088800;28;20203;-76
2022/12/10 07:16:54;;;;;;;19.23;10.90;;;;;;;10.60;100.00;93950.56;5090899;28;20231;-76
2022/12/10 07:19:20;;;;;;;21.97;11.17;;;;;;;10.68;100.00;93929.38;5087588;28;20212;-76
2022/12/10 07:21:48;;;;;;;25.87;12.57;;;;;;;10.75;100.00;93937.81;5088606;28;20201;-76
2022/12/10 07:24:17;;;;;;;30.60;11.50;;;;;;;10.72;100.00;93920.09;5088440;28;20688;-77
2022/12/10 07:26:46;;;;;;;20.63;10.67;;;;;;;10.71;100.00;93935.91;5088388;28;20658;-76
2022/12/10 07:29:22;;;;;;;21.10;10.27;;;;;;;10.68;100.00;93925.97;5089662;28;20216;-76
2022/12/10 07:31:49;;;;;;;19.57;10.93;;;;;;;10.71;100.00;93915.13;5083183;28;20184;-76
2022/12/10 07:34:16;;;;;;;27.40;11.07;;;;;;;10.71;100.00;93913.31;5088285;28;20250;-78
2022/12/10 07:36:44;;;;;;;17.43;10.53;;;;;;;10.73;100.00;93908.69;5087374;28;21167;-78
2022/12/10 07:39:16;;;;;;;22.17;10.27;;;;;;;10.68;100.00;93920.78;5089903;28;20664;-79
2022/12/10 07:41:44;;;;;;;19.10;9.77;;;;;;;10.73;100.00;93916.47;5089558;28;20335;-79
2022/12/10 07:44:13;;;;;;;19.63;9.97;;;;;;;10.79;100.00;93918.09;5088731;28;20243;-78
2022/12/10 07:46:44;;;;;;;16.87;10.10;;;;;;;10.86;100.00;93919.75;5088588;28;20291;-81
2022/12/10 07:49:11;;;;;;;27.37;10.07;;;;;;;10.98;100.00;93934.25;5087262;28;20860;-79
2022/12/10 07:51:38;;;;;;;19.83;9.83;;;;;;;10.99;100.00;93927.25;5089652;28;20585;-81
2022/12/10 07:54:05;;;;;;;16.87;9.90;;;;;;;11.03;100.00;93921.31;5086801;28;20201;-79
2022/12/10 07:56:41;;;;;;;17.60;9.47;;;;;;;11.05;100.00;93914.09;5087355;28;20193;-78
2022/12/10 07:59:08;;;;;;;22.63;10.40;;;;;;;11.19;100.00;93917.13;5088986;28;20193;-79
2022/12/10 08:01:35;;;;;;;17.80;9.37;;;;;;;11.17;100.00;93904.34;5089527;28;20197;-79
2022/12/10 08:04:23;;;;;;;18.90;9.67;;;;;;;11.26;100.00;93909.94;5089836;28;20208;-80
2022/12/10 08:06:55;;;;;;;18.10;9.07;;;;;;;11.32;100.00;93901.97;5090372;28;20221;-79
2022/12/10 08:09:22;;;;;;;18.70;9.33;;;;;;;11.35;100.00;93892.88;5090268;28;20269;-79
2022/12/10 08:11:48;;;;;;;16.07;9.73;;;;;;;11.43;100.00;93892.47;5089937;28;20192;-80
2022/12/10 08:14:29;;;;;;;18.23;10.53;;;;;;;11.47;100.00;93888.34;5090581;28;20204;-78
2022/12/10 08:16:55;;;;;;;19.20;10.53;;;;;;;11.53;100.00;93890.00;5089440;28;20216;-80
2022/12/10 08:19:24;;;;;;;20.70;11.40;;;;;;;11.61;100.00;93893.97;5089813;28;20193;-79
2022/12/10 08:21:57;;;;;;;17.90;9.83;;;;;;;11.66;100.00;93886.25;5086367;28;20193;-80
2022/12/10 08:24:24;;;;;;;24.70;10.10;;;;;;;11.72;100.00;93885.28;5086591;28;20189;-82
2022/12/10 08:26:51;;;;;;;22.13;11.50;;;;;;;11.77;100.00;93886.16;5087825;28;20275;-80
2022/12/10 08:29:18;;;;;;;28.47;14.37;;;;;;;11.78;100.00;93874.69;5090667;28;20232;-82
2022/12/10 08:31:45;;;;;;;26.80;15.23;;;;;;;11.85;100.00;93890.13;5090911;28;20201;-82
2022/12/10 08:34:14;;;;;;;29.23;16.60;;;;;;;11.91;100.00;93879.53;5088381;28;20232;-81
2022/12/10 08:36:42;;;;;;;32.37;17.30;;;;;;;11.94;100.00;93875.66;5089959;28;20205;-80
2022/12/10 08:39:10;;;;;;;31.37;16.77;;;;;;;12.00;100.00;93874.66;5091160;28;20189;-81
2022/12/10 08:41:37;;;;;;;27.83;15.53;;;;;;;12.10;100.00;93869.53;5088812;28;20201;-81
2022/12/10 08:44:04;;;;;;;24.23;14.47;;;;;;;12.17;100.00;93874.56;5088582;28;20698;-78
2022/12/10 08:46:31;;;;;;;27.37;16.30;;;;;;;12.09;100.00;93867.19;5087117;28;20655;-79
2022/12/10 08:48:59;;;;;;;29.57;14.53;;;;;;;12.12;100.00;93872.69;5088309;28;20213;-79
2022/12/10 08:51:26;;;;;;;28.57;13.10;;;;;;;12.15;100.00;93866.22;5088994;28;20201;-82
2022/12/10 08:53:55;;;;;;;20.87;11.83;;;;;;;12.23;100.00;93868.38;5088880;28;20287;-82
2022/12/10 08:56:22;;;;;;;24.37;11.73;;;;;;;12.27;100.00;93857.19;5085922;28;20208;-82
2022/12/10 08:58:49;;;;;;;21.67;11.40;;;;;;;12.14;100.00;93856.81;5087662;28;20196;-81
2022/12/10 09:01:18;;;;;;;24.23;11.20;;;;;;;12.28;100.00;93863.19;5089921;28;20651;-76
2022/12/10 09:03:45;;;;;;;19.90;11.37;;;;;;;12.29;100.00;93855.16;5087871;28;20200;-82
2022/12/10 09:06:14;;;;;;;27.63;11.63;;;;;;;12.21;100.00;93842.56;5087881;28;20223;-78
2022/12/10 09:08:41;;;;;;;24.23;11.93;;;;;;;12.26;100.00;93840.00;5087909;28;20337;-79
2022/12/10 09:11:12;;;;;;;21.97;12.17;;;;;;;12.38;100.00;93858.09;5087455;28;20227;-78
2022/12/10 09:13:39;;;;;;;18.33;12.10;;;;;;;12.41;100.00;93857.56;5087522;28;20278;-78
2022/12/10 09:16:07;;;;;;;24.30;12.43;;;;;;;12.53;100.00;93853.75;5087354;28;20621;-78
2022/12/10 09:18:34;;;;;;;23.00;12.07;;;;;;;12.55;100.00;93853.53;5088535;28;20205;-81
2022/12/10 09:21:00;;;;;;;22.40;12.30;;;;;;;12.62;100.00;93856.69;5088953;28;20210;-81
2022/12/10 09:23:27;;;;;;;21.33;10.93;;;;;;;12.69;100.00;93849.47;5091271;28;20262;-81
2022/12/10 09:25:54;;;;;;;17.53;10.83;;;;;;;12.69;100.00;93840.84;5088896;28;20611;-80
2022/12/10 09:28:22;;;;;;;18.57;10.97;;;;;;;12.73;100.00;93832.25;5088675;28;20196;-83
2022/12/10 09:30:56;;;;;;;19.83;10.17;;;;;;;12.69;100.00;93820.00;5086633;28;20552;-83
2022/12/10 09:33:23;;;;;;;21.63;10.37;;;;;;;12.62;100.00;93809.78;5087281;28;20651;-81
2022/12/10 09:35:49;;;;;;;18.93;10.00;;;;;;;12.71;100.00;93800.44;5090130;28;20587;-81
2022/12/10 09:38:16;;;;;;;17.23;10.03;;;;;;;12.94;100.00;93820.13;5089314;28;20201;-83
2022/12/10 09:40:49;;;;;;;16.53;8.93;;;;;;;12.99;100.00;93820.94;5090038;28;20215;-82
2022/12/10 09:43:24;;;;;;;19.87;10.00;;;;;;;13.08;100.00;93806.44;5089669;28;20671;-82
2022/12/10 09:46:04;;;;;;;15.10;9.37;;;;;;;13.22;100.00;93788.47;5088093;28;20192;-82
2022/12/10 09:48:36;;;;;;;21.43;9.87;;;;;;;13.35;100.00;93795.06;5090479;28;20191;-83
2022/12/10 09:51:09;;;;;;;21.43;10.07;;;;;;;13.98;100.00;93802.53;5089268;28;20207;-83
2022/12/10 09:53:38;;;;;;;18.67;9.90;;;;;;;15.14;100.00;93815.53;5089397;28;20204;-83
2022/12/10 09:56:07;;;;;;;18.33;8.77;;;;;;;16.38;100.00;93818.84;5089366;28;21199;-82
2022/12/10 09:58:38;;;;;;;14.87;9.10;;;;;;;17.49;96.57;93818.59;5089607;28;20302;-82
2022/12/10 10:01:06;;;;;;;13.57;7.93;;;;;;;18.48;91.19;93829.09;5091202;28;20203;-81
2022/12/10 10:03:39;;;;;;;15.50;8.77;;;;;;;19.40;85.58;93816.00;5091819;28;20196;-81
2022/12/10 10:06:07;;;;;;;12.90;7.50;;;;;;;19.86;82.90;93814.00;5090989;28;20210;-82
2022/12/10 10:08:38;;;;;;;13.47;7.83;;;;;;;19.94;80.22;93818.56;5087493;28;20430;-82
2022/12/10 10:11:06;;;;;;;15.30;7.33;;;;;;;20.69;79.08;93815.34;5094906;28;20681;-82
2022/12/10 10:13:39;;;;;;;15.03;8.23;;;;;;;21.13;76.74;93822.44;5092998;28;20208;-83
2022/12/10 10:16:19;;;;;;;19.05;7.30;;;;;;;21.30;75.97;93825.97;5091298;28;20207;-82
2022/12/10 10:18:51;;;;;;;11.50;6.97;;;;;;;21.70;73.76;93818.03;5090612;28;20203;-83
2022/12/10 10:21:22;;;;;;;11.30;7.45;;;;;;;21.49;73.37;93800.06;5092678;28;20860;-83
2022/12/10 10:23:49;;;;;;;12.32;7.95;;;;;;;21.27;74.78;93794.84;5090384;28;20204;-83
2022/12/10 10:26:16;;;;;;;11.35;7.22;;;;;;;20.99;75.54;93803.22;5091741;28;20200;-82
2022/12/10 10:28:45;;;;;;;20.42;8.20;;;;;;;20.86;76.43;93789.81;5093018;28;20209;-83
2022/12/10 10:31:21;;;;;;;19.40;8.30;;;;;;;21.12;76.42;93768.06;5092140;28;20339;-82
2022/12/10 10:33:50;;;;;;;19.55;9.73;;;;;;;21.06;75.52;93777.16;5092574;28;21176;-83
2022/12/10 10:36:17;;;;;;;18.77;8.95;;;;;;;20.94;76.12;93767.94;5093470;28;20700;-82
2022/12/10 10:38:49;;;;;;;19.38;9.07;;;;;;;21.05;76.64;93760.53;5094041;28;20209;-83
2022/12/10 10:41:16;;;;;;;22.00;9.43;;;;;;;20.84;76.53;93757.63;5092354;28;20236;-83
2022/12/10 10:43:47;;;;;;;29.42;13.48;;;;;;;20.86;75.40;93766.03;5092277;28;20228;-82
2022/12/10 10:46:16;;;;;;;19.65;11.85;;;;;;;20.53;77.29;93751.56;5092775;28;20208;-83
2022/12/10 10:48:42;;;;;;;20.92;9.02;;;;;;;20.46;76.74;93772.31;5093328;28;20208;-82
2022/12/10 10:51:20;;;;;;;30.85;14.13;;;;;;;19.95;77.51;93764.75;5091795;28;20216;-80
2022/12/10 10:53:50;;;;;;;49.70;20.70;;;;;;;19.81;78.82;93746.34;5090264;28;20198;-81
2022/12/10 10:56:20;;;;;;;20.88;10.73;;;;;;;19.45;80.44;93742.88;5090511;28;20201;-82
2022/12/10 10:59:03;;;;;;;17.95;8.45;;;;;;;19.20;82.19;93736.25;5091753;28;20211;-80
2022/12/10 11:01:46;;;;;;;12.93;8.18;;;;;;;19.58;81.56;93743.94;5092922;28;20195;-81
2022/12/10 11:04:15;;;;;;;34.13;14.48;;;;;;;19.81;79.30;93746.34;5090551;28;20213;-81
2022/12/10 11:06:42;;;;;;;20.77;8.18;;;;;;;19.68;80.32;93743.75;5090745;28;20216;-81
2022/12/10 11:09:16;;;;;;;17.45;7.68;;;;;;;19.63;80.43;93736.69;5090513;28;20650;-81
2022/12/10 11:11:50;;;;;;;15.10;7.22;;;;;;;19.56;80.65;93730.28;5090221;28;20200;-82
2022/12/10 11:14:27;;;;;;;11.60;6.20;;;;;;;19.55;81.02;93716.31;5098420;28;20200;-81
2022/12/10 11:17:02;;;;;;;13.02;6.40;;;;;;;19.27;82.27;93709.50;5090866;28;20185;-82
2022/12/10 11:19:29;;;;;;;9.68;5.65;;;;;;;18.98;83.27;93701.91;5091794;28;20202;-82
2022/12/10 11:22:03;;;;;;;18.63;6.40;;;;;;;18.78;84.58;93694.41;5091753;28;20216;-83
2022/12/10 11:24:30;;;;;;;11.37;6.50;;;;;;;18.38;86.14;93687.19;5091151;28;20188;-82
2022/12/10 11:27:04;;;;;;;13.83;7.10;;;;;;;18.10;86.83;93668.72;5092720;28;20192;-82
2022/12/10 11:29:50;;;;;;;13.80;6.90;;;;;;;18.13;87.73;93676.03;5091434;28;20208;-83
2022/12/10 11:32:39;;;;;;;12.07;6.63;;;;;;;18.10;87.52;93678.44;5088718;28;20208;-84
2022/12/10 11:35:13;;;;;;;12.73;7.00;;;;;;;18.05;88.47;93681.16;5088575;28;20662;-84